sensor_id;sensor_type;location;lat;lon;timestamp;pressure;altitude;pressure_sealevel;temperature;humidity
64354;BME280;50681;53.334;-6.536;2023-04-15T00:00:23;100789.81;;;10.14;100.00
64354;BME280;50681;53.334;-6.536;2023-04-15T00:02:50;100785.00;;;10.06;100.00
64354;BME280;50681;53.334;-6.536;2023-04-15T00:05:15;100787.28;;;9.83;100.00
64354;BME280;50681;53.334;-6.536;2023-04-15T00:07:41;100790.25;;;9.87;100.00
64354;BME280;50681;53.334;-6.536;2023-04-15T00:10:06;100801.84;;;9.87;100.00
64354;BME280;50681;53.334;-6.536;2023-04-15T00:12:32;100801.59;;;9.83;100.00
64354;BME280;50681;53.334;-6.536;2023-04-15T00:14:57;100804.00;;;9.85;100.00
64354;BME280;50681;53.334;-6.536;2023-04-15T00:17:23;100809.69;;;9.83;100.00
64354;BME280;50681;53.334;-6.536;2023-04-15T00:19:49;100808.91;;;9.73;100.00
64354;BME280;50681;53.334;-6.536;2023-04-15T00:22:14;100814.03;;;9.74;100.00
64354;BME280;50681;53.334;-6.536;2023-04-15T00:24:40;100818.63;;;9.68;100.00
64354;BME280;50681;53.334;-6.536;2023-04-15T00:27:07;100824.84;;;9.69;100.00
64354;BME280;50681;53.334;-6.536;2023-04-15T00:29:32;100843.19;;;9.72;100.00
64354;BME280;50681;53.334;-6.536;2023-04-15T00:31:58;100834.56;;;9.70;100.00
64354;BME280;50681;53.334;-6.536;2023-04-15T00:34:23;100826.47;;;9.65;100.00
64354;BME280;50681;53.334;-6.536;2023-04-15T00:36:49;100841.53;;;9.76;100.00
64354;BME280;50681;53.334;-6.536;2023-04-15T00:39:16;100837.25;;;9.70;100.00
64354;BME280;50681;53.334;-6.536;2023-04-15T00:41:42;100839.03;;;9.90;100.00
64354;BME280;50681;53.334;-6.536;2023-04-15T00:44:08;100837.66;;;9.98;100.00
64354;BME280;50681;53.334;-6.536;2023-04-15T00:46:36;100850.00;;;10.09;100.00
64354;BME280;50681;53.334;-6.536;2023-04-15T00:49:05;100841.41;;;10.02;100.00
64354;BME280;50681;53.334;-6.536;2023-04-15T00:51:32;100835.16;;;10.07;100.00
64354;BME280;50681;53.334;-6.536;2023-04-15T00:54:03;100842.56;;;9.91;100.00
64354;BME280;50681;53.334;-6.536;2023-04-15T00:56:29;100850.66;;;9.85;100.00
64354;BME280;50681;53.334;-6.536;2023-04-15T00:58:56;100843.41;;;9.81;100.00
64354;BME280;50681;53.334;-6.536;2023-04-15T01:01:24;100841.72;;;9.90;100.00
64354;BME280;50681;53.334;-6.536;2023-04-15T01:03:50;100857.94;;;9.85;100.00
64354;BME280;50681;53.334;-6.536;2023-04-15T01:06:17;100855.25;;;9.85;100.00
64354;BME280;50681;53.334;-6.536;2023-04-15T01:08:43;100846.41;;;9.69;100.00
64354;BME280;50681;53.334;-6.536;2023-04-15T01:11:11;100838.34;;;9.64;100.00
64354;BME280;50681;53.334;-6.536;2023-04-15T01:13:37;100849.19;;;9.43;100.00
64354;BME280;50681;53.334;-6.536;2023-04-15T01:16:19;100852.06;;;9.67;100.00
64354;BME280;50681;53.334;-6.536;2023-04-15T01:18:45;100861.31;;;9.40;100.00
64354;BME280;50681;53.334;-6.536;2023-04-15T01:21:10;100857.28;;;9.43;100.00
64354;BME280;50681;53.334;-6.536;2023-04-15T01:23:37;100870.47;;;9.39;100.00
64354;BME280;50681;53.334;-6.536;2023-04-15T01:26:03;100877.28;;;9.21;100.00
64354;BME280;50681;53.334;-6.536;2023-04-15T01:28:29;100876.75;;;9.14;100.00
64354;BME280;50681;53.334;-6.536;2023-04-15T01:31:12;100883.75;;;9.10;100.00
64354;BME280;50681;53.334;-6.536;2023-04-15T01:33:41;100882.66;;;9.06;100.00
64354;BME280;50681;53.334;-6.536;2023-04-15T01:36:08;100879.16;;;9.00;100.00
64354;BME280;50681;53.334;-6.536;2023-04-15T01:38:37;100874.59;;;9.01;100.00
64354;BME280;50681;53.334;-6.536;2023-04-15T01:41:03;100883.47;;;9.01;100.00
64354;BME280;50681;53.334;-6.536;2023-04-15T01:43:29;100887.78;;;9.12;100.00
64354;BME280;50681;53.334;-6.536;2023-04-15T01:45:54;100900.44;;;9.07;100.00
64354;BME280;50681;53.334;-6.536;2023-04-15T01:48:22;100897.44;;;9.29;100.00
64354;BME280;50681;53.334;-6.536;2023-04-15T01:50:47;100899.09;;;8.94;100.00
64354;BME280;50681;53.334;-6.536;2023-04-15T01:53:13;100899.88;;;8.58;100.00
64354;BME280;50681;53.334;-6.536;2023-04-15T01:55:40;100894.78;;;8.77;100.00
64354;BME280;50681;53.334;-6.536;2023-04-15T01:58:06;100897.22;;;8.74;100.00
64354;BME280;50681;53.334;-6.536;2023-04-15T02:00:31;100904.75;;;8.82;100.00
64354;BME280;50681;53.334;-6.536;2023-04-15T02:02:57;100895.59;;;8.83;100.00
64354;BME280;50681;53.334;-6.536;2023-04-15T02:05:23;100911.47;;;8.95;100.00
64354;BME280;50681;53.334;-6.536;2023-04-15T02:07:49;100917.69;;;9.01;100.00
64354;BME280;50681;53.334;-6.536;2023-04-15T02:10:15;100917.41;;;9.02;100.00
64354;BME280;50681;53.334;-6.536;2023-04-15T02:12:41;100916.31;;;8.93;100.00
64354;BME280;50681;53.334;-6.536;2023-04-15T02:15:07;100925.78;;;8.95;100.00
64354;BME280;50681;53.334;-6.536;2023-04-15T02:17:33;100923.06;;;9.01;100.00
64354;BME280;50681;53.334;-6.536;2023-04-15T02:19:59;100919.53;;;8.74;100.00
64354;BME280;50681;53.334;-6.536;2023-04-15T02:22:24;100919.84;;;8.78;100.00
64354;BME280;50681;53.334;-6.536;2023-04-15T02:24:50;100918.75;;;8.68;100.00
64354;BME280;50681;53.334;-6.536;2023-04-15T02:27:16;100910.94;;;8.82;100.00
64354;BME280;50681;53.334;-6.536;2023-04-15T02:29:43;100911.22;;;8.76;100.00
64354;BME280;50681;53.334;-6.536;2023-04-15T02:32:10;100917.69;;;8.80;100.00
64354;BME280;50681;53.334;-6.536;2023-04-15T02:34:36;100914.16;;;8.74;100.00
64354;BME280;50681;53.334;-6.536;2023-04-15T02:37:05;100925.19;;;8.67;100.00
64354;BME280;50681;53.334;-6.536;2023-04-15T02:39:31;100929.53;;;8.74;100.00
64354;BME280;50681;53.334;-6.536;2023-04-15T02:41:56;100935.97;;;8.78;100.00
64354;BME280;50681;53.334;-6.536;2023-04-15T02:44:24;100942.66;;;8.60;100.00
64354;BME280;50681;53.334;-6.536;2023-04-15T02:46:49;100930.59;;;8.67;100.00
64354;BME280;50681;53.334;-6.536;2023-04-15T02:49:17;100937.03;;;8.61;100.00
64354;BME280;50681;53.334;-6.536;2023-04-15T02:51:43;100942.41;;;8.61;100.00
64354;BME280;50681;53.334;-6.536;2023-04-15T02:54:14;100944.25;;;8.50;100.00
64354;BME280;50681;53.334;-6.536;2023-04-15T02:56:39;100943.97;;;8.47;100.00
64354;BME280;50681;53.334;-6.536;2023-04-15T02:59:05;100941.59;;;8.56;100.00
64354;BME280;50681;53.334;-6.536;2023-04-15T03:01:30;100950.50;;;8.61;100.00
64354;BME280;50681;53.334;-6.536;2023-04-15T03:03:56;100952.03;;;8.47;100.00
64354;BME280;50681;53.334;-6.536;2023-04-15T03:06:21;100960.81;;;8.21;100.00
64354;BME280;50681;53.334;-6.536;2023-04-15T03:08:49;100954.41;;;8.33;100.00
64354;BME280;50681;53.334;-6.536;2023-04-15T03:11:15;100965.19;;;8.38;100.00
64354;BME280;50681;53.334;-6.536;2023-04-15T03:13:41;100971.63;;;8.37;100.00
64354;BME280;50681;53.334;-6.536;2023-04-15T03:16:09;100976.84;;;8.49;100.00
64354;BME280;50681;53.334;-6.536;2023-04-15T03:18:35;100974.06;;;8.33;100.00
64354;BME280;50681;53.334;-6.536;2023-04-15T03:21:00;100973.53;;;8.36;100.00
64354;BME280;50681;53.334;-6.536;2023-04-15T03:23:27;100988.56;;;8.27;100.00
64354;BME280;50681;53.334;-6.536;2023-04-15T03:25:52;100988.00;;;8.20;100.00
64354;BME280;50681;53.334;-6.536;2023-04-15T03:28:20;100995.22;;;8.14;100.00
64354;BME280;50681;53.334;-6.536;2023-04-15T03:30:45;100992.88;;;8.28;100.00
64354;BME280;50681;53.334;-6.536;2023-04-15T03:33:11;100989.09;;;8.24;100.00
64354;BME280;50681;53.334;-6.536;2023-04-15T03:35:36;100989.31;;;8.17;100.00
64354;BME280;50681;53.334;-6.536;2023-04-15T03:38:02;100995.25;;;8.19;100.00
64354;BME280;50681;53.334;-6.536;2023-04-15T03:40:27;101005.47;;;8.22;100.00
64354;BME280;50681;53.334;-6.536;2023-04-15T03:42:53;101007.34;;;8.17;100.00
64354;BME280;50681;53.334;-6.536;2023-04-15T03:45:18;101007.72;;;7.88;100.00
64354;BME280;50681;53.334;-6.536;2023-04-15T03:47:44;101023.38;;;7.96;100.00
64354;BME280;50681;53.334;-6.536;2023-04-15T03:50:09;101026.94;;;8.12;100.00
64354;BME280;50681;53.334;-6.536;2023-04-15T03:52:35;101030.22;;;7.76;100.00
64354;BME280;50681;53.334;-6.536;2023-04-15T03:55:00;101023.53;;;7.79;100.00
64354;BME280;50681;53.334;-6.536;2023-04-15T03:57:26;101033.03;;;7.92;100.00
64354;BME280;50681;53.334;-6.536;2023-04-15T03:59:52;101027.34;;;7.83;100.00
64354;BME280;50681;53.334;-6.536;2023-04-15T04:02:17;101027.72;;;8.02;100.00
64354;BME280;50681;53.334;-6.536;2023-04-15T04:04:42;101029.88;;;8.05;100.00
64354;BME280;50681;53.334;-6.536;2023-04-15T04:07:14;101030.22;;;8.24;100.00
64354;BME280;50681;53.334;-6.536;2023-04-15T04:09:40;101033.06;;;7.97;100.00
64354;BME280;50681;53.334;-6.536;2023-04-15T04:12:06;101019.38;;;8.04;100.00
64354;BME280;50681;53.334;-6.536;2023-04-15T04:14:31;101039.63;;;8.17;100.00
64354;BME280;50681;53.334;-6.536;2023-04-15T04:16:57;101038.53;;;8.13;100.00
64354;BME280;50681;53.334;-6.536;2023-04-15T04:19:22;101039.31;;;8.13;100.00
64354;BME280;50681;53.334;-6.536;2023-04-15T04:21:48;101023.94;;;8.03;100.00
64354;BME280;50681;53.334;-6.536;2023-04-15T04:24:13;101035.53;;;7.66;100.00
64354;BME280;50681;53.334;-6.536;2023-04-15T04:26:38;101035.16;;;7.90;100.00
64354;BME280;50681;53.334;-6.536;2023-04-15T04:29:04;101043.88;;;7.64;100.00
64354;BME280;50681;53.334;-6.536;2023-04-15T04:31:29;101050.53;;;8.00;100.00
64354;BME280;50681;53.334;-6.536;2023-04-15T04:33:55;101052.50;;;8.09;100.00
64354;BME280;50681;53.334;-6.536;2023-04-15T04:36:20;101051.34;;;8.00;100.00
64354;BME280;50681;53.334;-6.536;2023-04-15T04:38:46;101055.75;;;8.17;100.00
64354;BME280;50681;53.334;-6.536;2023-04-15T04:41:11;101066.00;;;8.20;100.00
64354;BME280;50681;53.334;-6.536;2023-04-15T04:43:36;101065.28;;;7.92;100.00
64354;BME280;50681;53.334;-6.536;2023-04-15T04:46:02;101068.00;;;7.97;100.00
64354;BME280;50681;53.334;-6.536;2023-04-15T04:48:27;101070.22;;;8.05;100.00
64354;BME280;50681;53.334;-6.536;2023-04-15T04:50:53;101074.81;;;8.10;100.00
64354;BME280;50681;53.334;-6.536;2023-04-15T04:53:18;101072.84;;;7.95;100.00
64354;BME280;50681;53.334;-6.536;2023-04-15T04:55:44;101075.28;;;7.64;100.00
64354;BME280;50681;53.334;-6.536;2023-04-15T04:58:10;101069.16;;;7.69;100.00
64354;BME280;50681;53.334;-6.536;2023-04-15T05:00:35;101077.06;;;7.86;100.00
64354;BME280;50681;53.334;-6.536;2023-04-15T05:03:02;101077.59;;;7.83;100.00
64354;BME280;50681;53.334;-6.536;2023-04-15T05:05:28;101083.06;;;7.98;100.00
64354;BME280;50681;53.334;-6.536;2023-04-15T05:07:53;101090.88;;;8.00;100.00
64354;BME280;50681;53.334;-6.536;2023-04-15T05:10:19;101077.94;;;7.59;100.00
64354;BME280;50681;53.334;-6.536;2023-04-15T05:12:44;101097.22;;;7.83;100.00
64354;BME280;50681;53.334;-6.536;2023-04-15T05:15:10;101097.28;;;7.88;100.00
64354;BME280;50681;53.334;-6.536;2023-04-15T05:17:35;101102.34;;;7.85;100.00
64354;BME280;50681;53.334;-6.536;2023-04-15T05:20:01;101110.44;;;7.90;100.00
64354;BME280;50681;53.334;-6.536;2023-04-15T05:22:27;101119.06;;;7.92;100.00
64354;BME280;50681;53.334;-6.536;2023-04-15T05:24:53;101116.84;;;7.84;100.00
64354;BME280;50681;53.334;-6.536;2023-04-15T05:27:18;101117.00;;;7.67;100.00
64354;BME280;50681;53.334;-6.536;2023-04-15T05:29:44;101122.75;;;7.80;100.00
64354;BME280;50681;53.334;-6.536;2023-04-15T05:32:09;101125.75;;;7.84;100.00
64354;BME280;50681;53.334;-6.536;2023-04-15T05:34:35;101126.25;;;7.81;100.00
64354;BME280;50681;53.334;-6.536;2023-04-15T05:37:00;101136.03;;;7.92;100.00
64354;BME280;50681;53.334;-6.536;2023-04-15T05:39:26;101135.44;;;7.85;100.00
64354;BME280;50681;53.334;-6.536;2023-04-15T05:41:52;101144.56;;;7.84;100.00
64354;BME280;50681;53.334;-6.536;2023-04-15T05:44:17;101142.78;;;8.00;100.00
64354;BME280;50681;53.334;-6.536;2023-04-15T05:46:43;101144.28;;;7.86;100.00
64354;BME280;50681;53.334;-6.536;2023-04-15T05:49:08;101134.59;;;7.85;100.00
64354;BME280;50681;53.334;-6.536;2023-04-15T05:51:33;101147.06;;;7.96;100.00
64354;BME280;50681;53.334;-6.536;2023-04-15T05:54:00;101161.84;;;7.99;100.00
64354;BME280;50681;53.334;-6.536;2023-04-15T05:56:26;101159.69;;;7.95;100.00
64354;BME280;50681;53.334;-6.536;2023-04-15T05:58:52;101158.41;;;8.03;100.00
64354;BME280;50681;53.334;-6.536;2023-04-15T06:01:18;101167.56;;;8.02;100.00
64354;BME280;50681;53.334;-6.536;2023-04-15T06:03:43;101171.03;;;8.03;100.00
64354;BME280;50681;53.334;-6.536;2023-04-15T06:06:09;101168.06;;;7.99;100.00
64354;BME280;50681;53.334;-6.536;2023-04-15T06:08:34;101166.44;;;7.98;100.00
64354;BME280;50681;53.334;-6.536;2023-04-15T06:11:00;101178.88;;;8.04;100.00
64354;BME280;50681;53.334;-6.536;2023-04-15T06:13:25;101186.66;;;8.06;100.00
64354;BME280;50681;53.334;-6.536;2023-04-15T06:15:51;101191.63;;;8.19;100.00
64354;BME280;50681;53.334;-6.536;2023-04-15T06:18:17;101190.50;;;8.15;100.00
64354;BME280;50681;53.334;-6.536;2023-04-15T06:20:44;101195.72;;;8.27;100.00
64354;BME280;50681;53.334;-6.536;2023-04-15T06:23:09;101192.59;;;8.41;100.00
64354;BME280;50681;53.334;-6.536;2023-04-15T06:25:34;101201.03;;;8.55;100.00
64354;BME280;50681;53.334;-6.536;2023-04-15T06:28:00;101198.00;;;8.46;100.00
64354;BME280;50681;53.334;-6.536;2023-04-15T06:30:25;101194.63;;;8.23;100.00
64354;BME280;50681;53.334;-6.536;2023-04-15T06:32:51;101197.41;;;8.38;100.00
64354;BME280;50681;53.334;-6.536;2023-04-15T06:35:16;101200.78;;;8.51;100.00
64354;BME280;50681;53.334;-6.536;2023-04-15T06:37:42;101207.53;;;8.59;100.00
64354;BME280;50681;53.334;-6.536;2023-04-15T06:40:08;101214.66;;;8.80;100.00
64354;BME280;50681;53.334;-6.536;2023-04-15T06:42:34;101209.50;;;8.68;100.00
64354;BME280;50681;53.334;-6.536;2023-04-15T06:45:03;101229.22;;;9.38;100.00
64354;BME280;50681;53.334;-6.536;2023-04-15T06:47:29;101211.28;;;9.01;100.00
64354;BME280;50681;53.334;-6.536;2023-04-15T06:49:54;101223.97;;;9.10;100.00
64354;BME280;50681;53.334;-6.536;2023-04-15T06:52:20;101237.72;;;9.09;100.00
64354;BME280;50681;53.334;-6.536;2023-04-15T06:54:45;101246.13;;;9.23;100.00
64354;BME280;50681;53.334;-6.536;2023-04-15T06:57:11;101239.13;;;9.22;100.00
64354;BME280;50681;53.334;-6.536;2023-04-15T06:59:36;101249.16;;;9.32;100.00
64354;BME280;50681;53.334;-6.536;2023-04-15T07:02:01;101243.78;;;9.37;100.00
64354;BME280;50681;53.334;-6.536;2023-04-15T07:04:27;101266.19;;;9.48;100.00
64354;BME280;50681;53.334;-6.536;2023-04-15T07:06:53;101269.16;;;9.46;100.00
64354;BME280;50681;53.334;-6.536;2023-04-15T07:09:20;101279.72;;;9.63;100.00
64354;BME280;50681;53.334;-6.536;2023-04-15T07:11:46;101272.81;;;10.09;100.00
64354;BME280;50681;53.334;-6.536;2023-04-15T07:14:11;101268.56;;;9.34;100.00
64354;BME280;50681;53.334;-6.536;2023-04-15T07:16:37;101280.25;;;9.60;100.00
64354;BME280;50681;53.334;-6.536;2023-04-15T07:19:02;101289.25;;;9.92;100.00
64354;BME280;50681;53.334;-6.536;2023-04-15T07:21:28;101288.72;;;10.00;100.00
64354;BME280;50681;53.334;-6.536;2023-04-15T07:23:53;101294.66;;;10.02;100.00
64354;BME280;50681;53.334;-6.536;2023-04-15T07:26:19;101291.72;;;10.19;100.00
64354;BME280;50681;53.334;-6.536;2023-04-15T07:28:44;101292.81;;;10.28;100.00
64354;BME280;50681;53.334;-6.536;2023-04-15T07:31:11;101300.94;;;10.70;100.00
64354;BME280;50681;53.334;-6.536;2023-04-15T07:33:36;101294.72;;;10.38;100.00
64354;BME280;50681;53.334;-6.536;2023-04-15T07:36:02;101304.13;;;10.20;100.00
64354;BME280;50681;53.334;-6.536;2023-04-15T07:38:27;101300.91;;;10.28;100.00
64354;BME280;50681;53.334;-6.536;2023-04-15T07:40:53;101317.34;;;10.17;100.00
64354;BME280;50681;53.334;-6.536;2023-04-15T07:43:18;101317.41;;;10.42;100.00
64354;BME280;50681;53.334;-6.536;2023-04-15T07:45:45;101310.13;;;10.58;100.00
64354;BME280;50681;53.334;-6.536;2023-04-15T07:48:10;101315.81;;;10.52;100.00
64354;BME280;50681;53.334;-6.536;2023-04-15T07:50:36;101327.94;;;10.49;100.00
64354;BME280;50681;53.334;-6.536;2023-04-15T07:53:02;101322.78;;;10.68;100.00
64354;BME280;50681;53.334;-6.536;2023-04-15T07:55:27;101323.03;;;11.03;100.00
64354;BME280;50681;53.334;-6.536;2023-04-15T07:57:54;101315.22;;;10.81;100.00
64354;BME280;50681;53.334;-6.536;2023-04-15T08:00:20;101328.47;;;10.82;100.00
64354;BME280;50681;53.334;-6.536;2023-04-15T08:02:46;101325.47;;;10.99;100.00
64354;BME280;50681;53.334;-6.536;2023-04-15T08:05:12;101327.63;;;11.08;100.00
64354;BME280;50681;53.334;-6.536;2023-04-15T08:07:38;101331.81;;;11.55;100.00
64354;BME280;50681;53.334;-6.536;2023-04-15T08:10:04;101330.19;;;11.54;100.00
64354;BME280;50681;53.334;-6.536;2023-04-15T08:12:30;101323.41;;;11.62;100.00
64354;BME280;50681;53.334;-6.536;2023-04-15T08:14:56;101330.09;;;11.75;100.00
64354;BME280;50681;53.334;-6.536;2023-04-15T08:17:22;101326.09;;;11.67;100.00
64354;BME280;50681;53.334;-6.536;2023-04-15T08:19:47;101326.88;;;11.73;100.00
64354;BME280;50681;53.334;-6.536;2023-04-15T08:22:13;101332.19;;;11.94;100.00
64354;BME280;50681;53.334;-6.536;2023-04-15T08:24:39;101331.69;;;11.86;100.00
64354;BME280;50681;53.334;-6.536;2023-04-15T08:27:04;101326.13;;;12.17;100.00
64354;BME280;50681;53.334;-6.536;2023-04-15T08:29:33;101336.75;;;12.48;100.00
64354;BME280;50681;53.334;-6.536;2023-04-15T08:32:00;101347.09;;;12.41;100.00
64354;BME280;50681;53.334;-6.536;2023-04-15T08:34:41;101344.78;;;12.59;100.00
64354;BME280;50681;53.334;-6.536;2023-04-15T08:37:06;101349.69;;;12.57;100.00
64354;BME280;50681;53.334;-6.536;2023-04-15T08:39:32;101351.25;;;12.63;100.00
64354;BME280;50681;53.334;-6.536;2023-04-15T08:42:01;101352.56;;;12.71;100.00
64354;BME280;50681;53.334;-6.536;2023-04-15T08:44:33;101351.25;;;12.98;100.00
64354;BME280;50681;53.334;-6.536;2023-04-15T08:47:02;101361.47;;;13.06;100.00
64354;BME280;50681;53.334;-6.536;2023-04-15T08:49:28;101364.97;;;13.06;100.00
64354;BME280;50681;53.334;-6.536;2023-04-15T08:51:55;101370.34;;;13.12;100.00
64354;BME280;50681;53.334;-6.536;2023-04-15T08:54:22;101366.53;;;13.13;100.00
64354;BME280;50681;53.334;-6.536;2023-04-15T08:56:48;101359.28;;;13.08;100.00
64354;BME280;50681;53.334;-6.536;2023-04-15T08:59:14;101357.56;;;13.17;100.00
64354;BME280;50681;53.334;-6.536;2023-04-15T09:01:41;101357.06;;;13.40;100.00
64354;BME280;50681;53.334;-6.536;2023-04-15T09:04:06;101363.72;;;13.52;100.00
64354;BME280;50681;53.334;-6.536;2023-04-15T09:06:33;101363.31;;;13.35;100.00
64354;BME280;50681;53.334;-6.536;2023-04-15T09:08:58;101362.72;;;13.67;100.00
64354;BME280;50681;53.334;-6.536;2023-04-15T09:11:29;101356.44;;;13.48;100.00
64354;BME280;50681;53.334;-6.536;2023-04-15T09:13:55;101365.19;;;13.64;100.00
64354;BME280;50681;53.334;-6.536;2023-04-15T09:16:21;101364.63;;;13.67;100.00
64354;BME280;50681;53.334;-6.536;2023-04-15T09:18:47;101377.66;;;13.41;100.00
64354;BME280;50681;53.334;-6.536;2023-04-15T09:21:14;101373.84;;;13.66;100.00
64354;BME280;50681;53.334;-6.536;2023-04-15T09:23:53;101370.53;;;13.50;100.00
64354;BME280;50681;53.334;-6.536;2023-04-15T09:26:19;101375.13;;;13.74;100.00
64354;BME280;50681;53.334;-6.536;2023-04-15T09:29:05;101380.19;;;14.24;100.00
64354;BME280;50681;53.334;-6.536;2023-04-15T09:31:31;101370.19;;;14.19;100.00
64354;BME280;50681;53.334;-6.536;2023-04-15T09:33:57;101372.19;;;14.33;100.00
64354;BME280;50681;53.334;-6.536;2023-04-15T09:36:23;101384.13;;;14.51;100.00
64354;BME280;50681;53.334;-6.536;2023-04-15T09:38:58;101394.88;;;14.42;100.00
64354;BME280;50681;53.334;-6.536;2023-04-15T09:41:25;101384.44;;;14.49;100.00
64354;BME280;50681;53.334;-6.536;2023-04-15T09:43:50;101379.81;;;15.02;100.00
64354;BME280;50681;53.334;-6.536;2023-04-15T09:46:16;101376.94;;;14.79;100.00
64354;BME280;50681;53.334;-6.536;2023-04-15T09:48:41;101378.75;;;14.65;100.00
64354;BME280;50681;53.334;-6.536;2023-04-15T09:51:07;101373.25;;;14.51;100.00
64354;BME280;50681;53.334;-6.536;2023-04-15T09:53:34;101388.75;;;15.03;100.00
64354;BME280;50681;53.334;-6.536;2023-04-15T09:56:01;101385.41;;;15.25;100.00
64354;BME280;50681;53.334;-6.536;2023-04-15T09:58:32;101378.25;;;15.29;100.00
64354;BME280;50681;53.334;-6.536;2023-04-15T10:00:58;101379.66;;;15.40;100.00
64354;BME280;50681;53.334;-6.536;2023-04-15T10:03:25;101389.13;;;15.43;100.00
64354;BME280;50681;53.334;-6.536;2023-04-15T10:05:53;101386.53;;;15.52;100.00
64354;BME280;50681;53.334;-6.536;2023-04-15T10:08:21;101387.28;;;15.24;100.00
64354;BME280;50681;53.334;-6.536;2023-04-15T10:10:48;101384.59;;;15.38;100.00
64354;BME280;50681;53.334;-6.536;2023-04-15T10:13:17;101399.22;;;15.56;100.00
64354;BME280;50681;53.334;-6.536;2023-04-15T10:15:44;101378.03;;;15.53;100.00
64354;BME280;50681;53.334;-6.536;2023-04-15T10:18:15;101385.72;;;15.65;100.00
64354;BME280;50681;53.334;-6.536;2023-04-15T10:20:43;101384.09;;;15.64;100.00
64354;BME280;50681;53.334;-6.536;2023-04-15T10:23:08;101383.78;;;15.66;100.00
64354;BME280;50681;53.334;-6.536;2023-04-15T10:25:35;101384.78;;;15.70;100.00
64354;BME280;50681;53.334;-6.536;2023-04-15T10:28:01;101387.47;;;16.12;100.00
64354;BME280;50681;53.334;-6.536;2023-04-15T10:30:27;101384.09;;;15.92;100.00
64354;BME280;50681;53.334;-6.536;2023-04-15T10:32:53;101395.84;;;16.15;100.00
64354;BME280;50681;53.334;-6.536;2023-04-15T10:35:20;101390.34;;;16.29;100.00
64354;BME280;50681;53.334;-6.536;2023-04-15T10:37:46;101392.31;;;16.15;100.00
64354;BME280;50681;53.334;-6.536;2023-04-15T10:40:28;101386.28;;;16.64;100.00
64354;BME280;50681;53.334;-6.536;2023-04-15T10:43:02;101386.59;;;16.39;100.00
64354;BME280;50681;53.334;-6.536;2023-04-15T10:45:31;101385.31;;;16.59;100.00
64354;BME280;50681;53.334;-6.536;2023-04-15T10:48:00;101388.59;;;16.48;100.00
64354;BME280;50681;53.334;-6.536;2023-04-15T10:50:26;101389.00;;;16.86;100.00
64354;BME280;50681;53.334;-6.536;2023-04-15T10:52:55;101390.50;;;16.70;100.00
64354;BME280;50681;53.334;-6.536;2023-04-15T10:55:23;101383.44;;;16.69;100.00
64354;BME280;50681;53.334;-6.536;2023-04-15T10:57:53;101389.03;;;16.64;100.00
64354;BME280;50681;53.334;-6.536;2023-04-15T11:00:23;101384.56;;;16.08;100.00
64354;BME280;50681;53.334;-6.536;2023-04-15T11:02:57;101385.69;;;16.67;98.97
64354;BME280;50681;53.334;-6.536;2023-04-15T11:08:08;101380.28;;;17.30;98.17
64354;BME280;50681;53.334;-6.536;2023-04-15T11:13:14;101372.25;;;17.83;92.63
64354;BME280;50681;53.334;-6.536;2023-04-15T11:15:42;101378.44;;;18.15;91.12
64354;BME280;50681;53.334;-6.536;2023-04-15T11:18:13;101389.38;;;18.15;90.20
64354;BME280;50681;53.334;-6.536;2023-04-15T11:20:41;101383.13;;;18.49;88.07
64354;BME280;50681;53.334;-6.536;2023-04-15T11:23:07;101373.78;;;18.50;82.78
64354;BME280;50681;53.334;-6.536;2023-04-15T11:25:34;101379.50;;;18.84;81.37
64354;BME280;50681;53.334;-6.536;2023-04-15T11:28:01;101370.19;;;18.85;84.61
64354;BME280;50681;53.334;-6.536;2023-04-15T11:30:29;101384.94;;;19.10;83.16
64354;BME280;50681;53.334;-6.536;2023-04-15T11:32:58;101393.09;;;19.28;83.14
64354;BME280;50681;53.334;-6.536;2023-04-15T11:35:24;101388.91;;;19.31;83.25
64354;BME280;50681;53.334;-6.536;2023-04-15T11:37:50;101379.97;;;19.43;78.71
64354;BME280;50681;53.334;-6.536;2023-04-15T11:40:27;101379.28;;;19.54;74.01
64354;BME280;50681;53.334;-6.536;2023-04-15T11:45:56;101381.97;;;19.63;75.52
64354;BME280;50681;53.334;-6.536;2023-04-15T11:48:24;101391.69;;;19.82;75.27
64354;BME280;50681;53.334;-6.536;2023-04-15T11:50:59;101390.47;;;20.01;76.15
64354;BME280;50681;53.334;-6.536;2023-04-15T11:53:45;101388.50;;;20.31;70.16
64354;BME280;50681;53.334;-6.536;2023-04-15T11:56:19;101374.44;;;20.33;71.73
64354;BME280;50681;53.334;-6.536;2023-04-15T11:58:46;101384.19;;;20.21;73.09
64354;BME280;50681;53.334;-6.536;2023-04-15T12:01:11;101377.09;;;20.41;69.56
64354;BME280;50681;53.334;-6.536;2023-04-15T12:03:47;101376.69;;;20.52;70.15
64354;BME280;50681;53.334;-6.536;2023-04-15T12:11:49;101383.94;;;20.90;69.73
64354;BME280;50681;53.334;-6.536;2023-04-15T12:14:27;101382.34;;;21.02;69.98
64354;BME280;50681;53.334;-6.536;2023-04-15T12:16:53;101377.31;;;21.28;65.75
64354;BME280;50681;53.334;-6.536;2023-04-15T12:21:59;101365.19;;;21.29;67.78
64354;BME280;50681;53.334;-6.536;2023-04-15T12:24:24;101372.97;;;21.27;67.99
64354;BME280;50681;53.334;-6.536;2023-04-15T12:26:57;101377.56;;;21.11;67.71
64354;BME280;50681;53.334;-6.536;2023-04-15T12:29:27;101371.38;;;21.26;66.47
64354;BME280;50681;53.334;-6.536;2023-04-15T12:31:57;101372.97;;;21.27;67.18
64354;BME280;50681;53.334;-6.536;2023-04-15T12:34:28;101374.56;;;21.28;63.72
64354;BME280;50681;53.334;-6.536;2023-04-15T12:36:54;101369.31;;;21.23;66.64
64354;BME280;50681;53.334;-6.536;2023-04-15T12:39:21;101381.66;;;21.54;62.76
64354;BME280;50681;53.334;-6.536;2023-04-15T12:41:46;101383.72;;;21.45;64.75
64354;BME280;50681;53.334;-6.536;2023-04-15T12:44:11;101367.38;;;21.11;62.76
64354;BME280;50681;53.334;-6.536;2023-04-15T12:46:37;101377.06;;;20.96;63.68
64354;BME280;50681;53.334;-6.536;2023-04-15T12:49:03;101379.13;;;20.99;62.67
64354;BME280;50681;53.334;-6.536;2023-04-15T12:51:28;101385.47;;;21.25;63.41